sensor_id;sensor_type;location;lat;lon;timestamp;P1;durP1;ratioP1;P2;durP2;ratioP2
944;SDS011;459;48.676;9.034;2023-04-10T00:01:12;11.60;;;8.87;;
944;SDS011;459;48.676;9.034;2023-04-10T00:03:37;10.63;;;9.53;;
944;SDS011;459;48.676;9.034;2023-04-10T00:06:02;9.17;;;7.80;;
944;SDS011;459;48.676;9.034;2023-04-10T00:08:27;9.60;;;8.30;;
944;SDS011;459;48.676;9.034;2023-04-10T00:10:53;10.20;;;8.07;;
944;SDS011;459;48.676;9.034;2023-04-10T00:13:18;14.80;;;9.80;;
944;SDS011;459;48.676;9.034;2023-04-10T00:15:43;11.30;;;9.37;;
944;SDS011;459;48.676;9.034;2023-04-10T00:18:09;13.63;;;9.63;;
944;SDS011;459;48.676;9.034;2023-04-10T00:20:34;10.30;;;8.50;;
944;SDS011;459;48.676;9.034;2023-04-10T00:22:59;10.93;;;9.40;;
944;SDS011;459;48.676;9.034;2023-04-10T00:25:25;11.70;;;8.70;;
944;SDS011;459;48.676;9.034;2023-04-10T00:27:50;9.30;;;7.67;;
944;SDS011;459;48.676;9.034;2023-04-10T00:30:15;10.10;;;8.77;;
944;SDS011;459;48.676;9.034;2023-04-10T00:32:41;12.67;;;9.10;;
944;SDS011;459;48.676;9.034;2023-04-10T00:35:07;13.07;;;9.47;;
944;SDS011;459;48.676;9.034;2023-04-10T00:37:33;11.73;;;9.97;;
944;SDS011;459;48.676;9.034;2023-04-10T00:39:58;10.57;;;9.47;;
944;SDS011;459;48.676;9.034;2023-04-10T00:42:23;9.43;;;8.27;;
944;SDS011;459;48.676;9.034;2023-04-10T00:44:48;8.90;;;8.00;;
944;SDS011;459;48.676;9.034;2023-04-10T00:47:32;10.50;;;8.90;;
944;SDS011;459;48.676;9.034;2023-04-10T00:49:58;10.50;;;8.53;;
944;SDS011;459;48.676;9.034;2023-04-10T00:52:23;10.33;;;9.33;;
944;SDS011;459;48.676;9.034;2023-04-10T00:54:50;10.23;;;8.90;;
944;SDS011;459;48.676;9.034;2023-04-10T00:57:15;9.63;;;8.40;;
944;SDS011;459;48.676;9.034;2023-04-10T00:59:40;9.57;;;8.57;;
944;SDS011;459;48.676;9.034;2023-04-10T01:02:05;11.13;;;8.27;;
944;SDS011;459;48.676;9.034;2023-04-10T01:04:30;10.77;;;9.20;;
944;SDS011;459;48.676;9.034;2023-04-10T01:12:05;12.80;;;9.07;;
944;SDS011;459;48.676;9.034;2023-04-10T01:14:45;11.40;;;9.87;;
944;SDS011;459;48.676;9.034;2023-04-10T01:17:16;9.93;;;8.80;;
944;SDS011;459;48.676;9.034;2023-04-10T01:22:36;10.50;;;7.77;;
944;SDS011;459;48.676;9.034;2023-04-10T01:25:13;9.67;;;7.97;;
944;SDS011;459;48.676;9.034;2023-04-10T01:30:06;9.20;;;8.05;;
944;SDS011;459;48.676;9.034;2023-04-10T01:32:35;10.57;;;8.00;;
944;SDS011;459;48.676;9.034;2023-04-10T01:35:02;10.57;;;9.40;;
944;SDS011;459;48.676;9.034;2023-04-10T01:37:29;10.13;;;9.00;;
944;SDS011;459;48.676;9.034;2023-04-10T01:40:00;9.93;;;8.47;;
944;SDS011;459;48.676;9.034;2023-04-10T01:42:30;10.57;;;9.17;;
944;SDS011;459;48.676;9.034;2023-04-10T01:44:56;11.70;;;10.43;;
944;SDS011;459;48.676;9.034;2023-04-10T01:47:21;11.17;;;9.00;;
944;SDS011;459;48.676;9.034;2023-04-10T01:49:48;10.20;;;8.33;;
944;SDS011;459;48.676;9.034;2023-04-10T01:52:13;10.27;;;8.77;;
944;SDS011;459;48.676;9.034;2023-04-10T01:54:39;10.23;;;8.00;;
944;SDS011;459;48.676;9.034;2023-04-10T01:57:05;9.10;;;8.20;;
944;SDS011;459;48.676;9.034;2023-04-10T01:59:30;10.63;;;8.83;;
944;SDS011;459;48.676;9.034;2023-04-10T02:01:56;10.87;;;9.77;;
944;SDS011;459;48.676;9.034;2023-04-10T02:04:21;11.27;;;8.87;;
944;SDS011;459;48.676;9.034;2023-04-10T02:06:49;9.03;;;8.10;;
944;SDS011;459;48.676;9.034;2023-04-10T02:09:27;11.83;;;9.70;;
944;SDS011;459;48.676;9.034;2023-04-10T02:14:20;11.70;;;10.07;;
944;SDS011;459;48.676;9.034;2023-04-10T02:16:46;9.33;;;8.43;;
944;SDS011;459;48.676;9.034;2023-04-10T02:19:13;11.57;;;9.20;;
944;SDS011;459;48.676;9.034;2023-04-10T02:21:38;10.80;;;8.43;;
944;SDS011;459;48.676;9.034;2023-04-10T02:24:06;10.03;;;9.00;;
944;SDS011;459;48.676;9.034;2023-04-10T02:26:46;12.03;;;8.90;;
944;SDS011;459;48.676;9.034;2023-04-10T02:29:12;13.63;;;10.03;;
944;SDS011;459;48.676;9.034;2023-04-10T02:31:38;12.60;;;10.73;;
944;SDS011;459;48.676;9.034;2023-04-10T02:34:03;11.83;;;9.70;;
944;SDS011;459;48.676;9.034;2023-04-10T02:36:29;10.37;;;9.27;;
944;SDS011;459;48.676;9.034;2023-04-10T02:38:54;13.00;;;9.83;;
944;SDS011;459;48.676;9.034;2023-04-10T02:41:19;12.10;;;9.50;;
944;SDS011;459;48.676;9.034;2023-04-10T02:43:44;11.60;;;8.67;;
944;SDS011;459;48.676;9.034;2023-04-10T02:46:09;11.97;;;9.87;;
944;SDS011;459;48.676;9.034;2023-04-10T02:48:35;10.90;;;8.80;;
944;SDS011;459;48.676;9.034;2023-04-10T02:51:01;12.27;;;9.53;;
944;SDS011;459;48.676;9.034;2023-04-10T02:53:26;10.50;;;9.40;;
944;SDS011;459;48.676;9.034;2023-04-10T02:55:52;11.03;;;9.00;;
944;SDS011;459;48.676;9.034;2023-04-10T02:58:17;12.20;;;9.40;;
944;SDS011;459;48.676;9.034;2023-04-10T03:00:49;10.33;;;8.43;;
944;SDS011;459;48.676;9.034;2023-04-10T03:03:15;11.93;;;8.67;;
944;SDS011;459;48.676;9.034;2023-04-10T03:05:40;11.23;;;9.00;;
944;SDS011;459;48.676;9.034;2023-04-10T03:08:05;11.90;;;10.00;;
944;SDS011;459;48.676;9.034;2023-04-10T03:10:30;8.80;;;8.00;;
944;SDS011;459;48.676;9.034;2023-04-10T03:12:55;11.10;;;9.10;;
944;SDS011;459;48.676;9.034;2023-04-10T03:15:21;12.10;;;9.90;;
944;SDS011;459;48.676;9.034;2023-04-10T03:17:46;12.17;;;10.10;;
944;SDS011;459;48.676;9.034;2023-04-10T03:20:11;10.97;;;9.23;;
944;SDS011;459;48.676;9.034;2023-04-10T03:22:36;9.13;;;7.80;;
944;SDS011;459;48.676;9.034;2023-04-10T03:25:02;12.77;;;9.70;;
944;SDS011;459;48.676;9.034;2023-04-10T03:27:27;11.53;;;10.13;;
944;SDS011;459;48.676;9.034;2023-04-10T03:29:53;10.47;;;9.37;;
944;SDS011;459;48.676;9.034;2023-04-10T03:32:18;10.13;;;8.77;;
944;SDS011;459;48.676;9.034;2023-04-10T03:34:43;9.63;;;8.43;;
944;SDS011;459;48.676;9.034;2023-04-10T03:37:08;11.10;;;9.10;;
944;SDS011;459;48.676;9.034;2023-04-10T03:39:33;13.87;;;10.27;;
944;SDS011;459;48.676;9.034;2023-04-10T03:42:00;10.73;;;8.30;;
944;SDS011;459;48.676;9.034;2023-04-10T03:44:25;10.20;;;9.03;;
944;SDS011;459;48.676;9.034;2023-04-10T03:46:51;11.40;;;8.90;;
944;SDS011;459;48.676;9.034;2023-04-10T03:49:16;9.40;;;8.27;;
944;SDS011;459;48.676;9.034;2023-04-10T03:51:41;11.03;;;8.80;;
944;SDS011;459;48.676;9.034;2023-04-10T03:54:06;11.20;;;9.90;;
944;SDS011;459;48.676;9.034;2023-04-10T03:56:31;12.60;;;8.93;;
944;SDS011;459;48.676;9.034;2023-04-10T03:58:57;9.80;;;8.80;;
944;SDS011;459;48.676;9.034;2023-04-10T04:01:22;9.50;;;8.40;;
944;SDS011;459;48.676;9.034;2023-04-10T04:03:47;10.47;;;9.07;;
944;SDS011;459;48.676;9.034;2023-04-10T04:06:12;12.80;;;8.43;;
944;SDS011;459;48.676;9.034;2023-04-10T04:08:37;11.67;;;9.07;;
944;SDS011;459;48.676;9.034;2023-04-10T04:11:03;15.70;;;9.93;;
944;SDS011;459;48.676;9.034;2023-04-10T04:13:28;10.23;;;8.77;;
944;SDS011;459;48.676;9.034;2023-04-10T04:15:53;11.70;;;8.80;;
944;SDS011;459;48.676;9.034;2023-04-10T04:18:18;10.53;;;8.90;;
944;SDS011;459;48.676;9.034;2023-04-10T04:20:43;11.53;;;9.00;;
944;SDS011;459;48.676;9.034;2023-04-10T04:23:09;10.53;;;8.70;;
944;SDS011;459;48.676;9.034;2023-04-10T04:25:34;9.17;;;7.70;;
944;SDS011;459;48.676;9.034;2023-04-10T04:27:59;13.20;;;9.70;;
944;SDS011;459;48.676;9.034;2023-04-10T04:30:25;11.03;;;8.80;;
944;SDS011;459;48.676;9.034;2023-04-10T04:32:50;9.60;;;8.43;;
944;SDS011;459;48.676;9.034;2023-04-10T04:35:15;11.07;;;8.60;;
944;SDS011;459;48.676;9.034;2023-04-10T04:37:40;10.67;;;8.43;;
944;SDS011;459;48.676;9.034;2023-04-10T04:40:06;10.43;;;8.77;;
944;SDS011;459;48.676;9.034;2023-04-10T04:42:31;9.83;;;8.13;;
944;SDS011;459;48.676;9.034;2023-04-10T04:44:56;11.90;;;9.03;;
944;SDS011;459;48.676;9.034;2023-04-10T04:47:22;13.20;;;9.93;;
944;SDS011;459;48.676;9.034;2023-04-10T04:49:48;9.80;;;7.40;;
944;SDS011;459;48.676;9.034;2023-04-10T04:52:13;10.03;;;8.53;;
944;SDS011;459;48.676;9.034;2023-04-10T04:54:38;13.37;;;9.40;;
944;SDS011;459;48.676;9.034;2023-04-10T04:57:03;10.97;;;8.37;;
944;SDS011;459;48.676;9.034;2023-04-10T04:59:29;9.97;;;8.90;;
944;SDS011;459;48.676;9.034;2023-04-10T05:01:54;13.27;;;8.63;;
944;SDS011;459;48.676;9.034;2023-04-10T05:04:19;11.40;;;8.90;;
944;SDS011;459;48.676;9.034;2023-04-10T05:06:45;10.63;;;8.70;;
944;SDS011;459;48.676;9.034;2023-04-10T05:09:10;12.20;;;8.87;;
944;SDS011;459;48.676;9.034;2023-04-10T05:11:35;12.00;;;9.27;;
944;SDS011;459;48.676;9.034;2023-04-10T05:14:00;10.67;;;9.47;;
944;SDS011;459;48.676;9.034;2023-04-10T05:16:25;11.53;;;9.33;;
944;SDS011;459;48.676;9.034;2023-04-10T05:18:51;10.10;;;8.43;;
944;SDS011;459;48.676;9.034;2023-04-10T05:21:16;15.37;;;9.90;;
944;SDS011;459;48.676;9.034;2023-04-10T05:23:41;10.50;;;9.30;;
944;SDS011;459;48.676;9.034;2023-04-10T05:26:06;11.00;;;9.13;;
944;SDS011;459;48.676;9.034;2023-04-10T05:28:32;10.23;;;9.13;;
944;SDS011;459;48.676;9.034;2023-04-10T05:30:57;11.10;;;8.83;;
944;SDS011;459;48.676;9.034;2023-04-10T05:33:22;11.30;;;9.30;;
944;SDS011;459;48.676;9.034;2023-04-10T05:35:47;13.00;;;9.03;;
944;SDS011;459;48.676;9.034;2023-04-10T05:38:12;11.87;;;9.90;;
944;SDS011;459;48.676;9.034;2023-04-10T05:40:38;12.20;;;9.83;;
944;SDS011;459;48.676;9.034;2023-04-10T05:43:03;11.57;;;9.47;;
944;SDS011;459;48.676;9.034;2023-04-10T05:45:28;11.73;;;9.20;;
944;SDS011;459;48.676;9.034;2023-04-10T05:47:54;12.00;;;10.03;;
944;SDS011;459;48.676;9.034;2023-04-10T05:50:19;13.70;;;9.50;;
944;SDS011;459;48.676;9.034;2023-04-10T05:52:44;11.83;;;8.90;;
944;SDS011;459;48.676;9.034;2023-04-10T05:55:10;11.80;;;9.70;;
944;SDS011;459;48.676;9.034;2023-04-10T05:57:35;9.63;;;8.37;;
944;SDS011;459;48.676;9.034;2023-04-10T06:00:01;12.00;;;9.80;;
944;SDS011;459;48.676;9.034;2023-04-10T06:02:26;12.50;;;10.90;;
944;SDS011;459;48.676;9.034;2023-04-10T06:04:51;13.53;;;10.43;;
944;SDS011;459;48.676;9.034;2023-04-10T06:07:17;13.20;;;10.60;;
944;SDS011;459;48.676;9.034;2023-04-10T06:09:42;12.10;;;9.17;;
944;SDS011;459;48.676;9.034;2023-04-10T06:12:07;12.80;;;10.80;;
944;SDS011;459;48.676;9.034;2023-04-10T06:14:32;13.93;;;11.50;;
944;SDS011;459;48.676;9.034;2023-04-10T06:16:57;9.73;;;8.73;;
944;SDS011;459;48.676;9.034;2023-04-10T06:19:22;12.37;;;11.07;;
944;SDS011;459;48.676;9.034;2023-04-10T06:21:48;12.77;;;11.03;;
944;SDS011;459;48.676;9.034;2023-04-10T06:24:13;11.13;;;9.90;;
944;SDS011;459;48.676;9.034;2023-04-10T06:26:39;10.13;;;9.10;;
944;SDS011;459;48.676;9.034;2023-04-10T06:29:04;10.70;;;9.43;;
944;SDS011;459;48.676;9.034;2023-04-10T06:31:32;11.87;;;10.57;;
944;SDS011;459;48.676;9.034;2023-04-10T06:33:58;10.90;;;9.30;;
944;SDS011;459;48.676;9.034;2023-04-10T06:36:23;9.63;;;8.60;;
944;SDS011;459;48.676;9.034;2023-04-10T06:38:48;13.48;;;10.05;;
944;SDS011;459;48.676;9.034;2023-04-10T06:41:13;12.90;;;10.20;;
944;SDS011;459;48.676;9.034;2023-04-10T06:43:38;11.50;;;9.20;;
944;SDS011;459;48.676;9.034;2023-04-10T06:46:04;16.63;;;13.93;;
944;SDS011;459;48.676;9.034;2023-04-10T06:48:30;16.90;;;14.30;;
944;SDS011;459;48.676;9.034;2023-04-10T06:50:55;13.90;;;12.40;;
944;SDS011;459;48.676;9.034;2023-04-10T06:53:20;12.93;;;11.07;;
944;SDS011;459;48.676;9.034;2023-04-10T06:55:46;13.30;;;9.43;;
944;SDS011;459;48.676;9.034;2023-04-10T06:58:11;9.77;;;8.77;;
944;SDS011;459;48.676;9.034;2023-04-10T07:00:36;9.40;;;8.33;;
944;SDS011;459;48.676;9.034;2023-04-10T07:03:02;9.80;;;8.30;;
944;SDS011;459;48.676;9.034;2023-04-10T07:05:27;10.43;;;8.00;;
944;SDS011;459;48.676;9.034;2023-04-10T07:07:52;9.73;;;7.60;;
944;SDS011;459;48.676;9.034;2023-04-10T07:10:18;9.40;;;7.60;;
944;SDS011;459;48.676;9.034;2023-04-10T07:12:43;7.73;;;6.93;;
944;SDS011;459;48.676;9.034;2023-04-10T07:15:08;7.23;;;6.50;;
944;SDS011;459;48.676;9.034;2023-04-10T07:17:33;7.70;;;6.80;;
944;SDS011;459;48.676;9.034;2023-04-10T07:19:58;7.50;;;6.03;;
944;SDS011;459;48.676;9.034;2023-04-10T07:22:24;6.10;;;5.30;;
944;SDS011;459;48.676;9.034;2023-04-10T07:24:49;5.80;;;5.17;;
944;SDS011;459;48.676;9.034;2023-04-10T07:27:14;6.57;;;5.80;;
944;SDS011;459;48.676;9.034;2023-04-10T07:29:40;7.33;;;6.60;;
944;SDS011;459;48.676;9.034;2023-04-10T07:32:06;7.20;;;6.50;;
944;SDS011;459;48.676;9.034;2023-04-10T07:34:31;6.80;;;5.10;;
944;SDS011;459;48.676;9.034;2023-04-10T07:36:56;6.83;;;5.50;;
944;SDS011;459;48.676;9.034;2023-04-10T07:39:21;7.33;;;6.07;;
944;SDS011;459;48.676;9.034;2023-04-10T07:41:47;6.87;;;5.80;;
944;SDS011;459;48.676;9.034;2023-04-10T07:44:12;7.63;;;5.73;;
944;SDS011;459;48.676;9.034;2023-04-10T07:46:38;7.40;;;5.40;;
944;SDS011;459;48.676;9.034;2023-04-10T07:49:03;6.10;;;5.20;;
944;SDS011;459;48.676;9.034;2023-04-10T07:51:28;5.87;;;5.23;;
944;SDS011;459;48.676;9.034;2023-04-10T07:53:54;5.57;;;5.00;;
944;SDS011;459;48.676;9.034;2023-04-10T07:56:20;5.67;;;5.07;;
944;SDS011;459;48.676;9.034;2023-04-10T07:58:46;7.10;;;5.43;;
944;SDS011;459;48.676;9.034;2023-04-10T08:01:11;5.90;;;5.33;;
944;SDS011;459;48.676;9.034;2023-04-10T08:03:43;7.07;;;5.83;;
944;SDS011;459;48.676;9.034;2023-04-10T08:06:09;5.27;;;4.77;;
944;SDS011;459;48.676;9.034;2023-04-10T08:08:35;5.63;;;5.10;;
944;SDS011;459;48.676;9.034;2023-04-10T08:11:01;5.23;;;4.73;;
944;SDS011;459;48.676;9.034;2023-04-10T08:13:26;5.90;;;4.93;;
944;SDS011;459;48.676;9.034;2023-04-10T08:15:52;5.83;;;5.23;;
944;SDS011;459;48.676;9.034;2023-04-10T08:18:17;7.30;;;6.60;;
944;SDS011;459;48.676;9.034;2023-04-10T08:20:42;6.32;;;5.72;;
944;SDS011;459;48.676;9.034;2023-04-10T08:23:07;5.37;;;4.87;;
944;SDS011;459;48.676;9.034;2023-04-10T08:25:32;5.87;;;5.17;;
944;SDS011;459;48.676;9.034;2023-04-10T08:27:57;6.40;;;5.43;;
944;SDS011;459;48.676;9.034;2023-04-10T08:30:24;5.57;;;5.07;;
944;SDS011;459;48.676;9.034;2023-04-10T08:32:49;5.50;;;4.40;;
944;SDS011;459;48.676;9.034;2023-04-10T08:35:14;5.93;;;5.33;;
944;SDS011;459;48.676;9.034;2023-04-10T08:37:39;4.77;;;4.27;;
944;SDS011;459;48.676;9.034;2023-04-10T08:40:05;4.57;;;4.17;;
944;SDS011;459;48.676;9.034;2023-04-10T08:42:30;4.40;;;3.90;;
944;SDS011;459;48.676;9.034;2023-04-10T08:44:55;6.30;;;4.80;;
944;SDS011;459;48.676;9.034;2023-04-10T08:47:20;4.80;;;4.30;;
944;SDS011;459;48.676;9.034;2023-04-10T08:49:55;4.40;;;4.00;;
944;SDS011;459;48.676;9.034;2023-04-10T08:52:21;4.80;;;4.30;;
944;SDS011;459;48.676;9.034;2023-04-10T08:54:47;5.50;;;4.87;;
944;SDS011;459;48.676;9.034;2023-04-10T08:57:14;4.13;;;3.83;;
944;SDS011;459;48.676;9.034;2023-04-10T08:59:44;5.03;;;4.60;;
944;SDS011;459;48.676;9.034;2023-04-10T09:02:09;4.37;;;3.97;;
944;SDS011;459;48.676;9.034;2023-04-10T09:04:35;4.30;;;3.60;;
944;SDS011;459;48.676;9.034;2023-04-10T09:07:00;3.50;;;3.20;;
944;SDS011;459;48.676;9.034;2023-04-10T09:09:25;4.83;;;3.50;;
944;SDS011;459;48.676;9.034;2023-04-10T09:14:35;3.73;;;2.87;;
944;SDS011;459;48.676;9.034;2023-04-10T09:19:37;2.20;;;1.73;;
944;SDS011;459;48.676;9.034;2023-04-10T09:22:02;2.53;;;2.33;;
944;SDS011;459;48.676;9.034;2023-04-10T09:24:28;2.00;;;1.80;;
944;SDS011;459;48.676;9.034;2023-04-10T09:26:53;3.20;;;2.90;;
944;SDS011;459;48.676;9.034;2023-04-10T09:29:18;3.20;;;3.00;;
944;SDS011;459;48.676;9.034;2023-04-10T09:31:43;3.27;;;2.97;;
944;SDS011;459;48.676;9.034;2023-04-10T09:34:13;3.40;;;3.10;;
944;SDS011;459;48.676;9.034;2023-04-10T09:36:39;3.23;;;2.93;;
944;SDS011;459;48.676;9.034;2023-04-10T09:39:06;3.30;;;3.00;;
944;SDS011;459;48.676;9.034;2023-04-10T09:41:31;3.80;;;3.10;;
944;SDS011;459;48.676;9.034;2023-04-10T09:44:09;2.60;;;2.30;;
944;SDS011;459;48.676;9.034;2023-04-10T09:46:36;2.80;;;2.43;;
944;SDS011;459;48.676;9.034;2023-04-10T09:49:01;3.13;;;2.70;;
944;SDS011;459;48.676;9.034;2023-04-10T09:51:32;2.87;;;2.67;;
944;SDS011;459;48.676;9.034;2023-04-10T09:53:58;3.23;;;2.93;;
944;SDS011;459;48.676;9.034;2023-04-10T09:56:24;2.67;;;2.47;;
944;SDS011;459;48.676;9.034;2023-04-10T09:58:50;3.00;;;2.10;;
944;SDS011;459;48.676;9.034;2023-04-10T10:01:15;3.10;;;2.63;;
944;SDS011;459;48.676;9.034;2023-04-10T10:03:41;3.30;;;3.00;;
944;SDS011;459;48.676;9.034;2023-04-10T10:06:07;4.37;;;3.10;;
944;SDS011;459;48.676;9.034;2023-04-10T10:08:35;3.50;;;3.00;;
944;SDS011;459;48.676;9.034;2023-04-10T10:11:00;3.13;;;2.67;;
944;SDS011;459;48.676;9.034;2023-04-10T10:13:40;3.27;;;2.97;;
944;SDS011;459;48.676;9.034;2023-04-10T10:18:50;3.30;;;3.00;;
944;SDS011;459;48.676;9.034;2023-04-10T10:21:18;2.47;;;2.27;;
944;SDS011;459;48.676;9.034;2023-04-10T10:23:44;2.70;;;2.50;;
944;SDS011;459;48.676;9.034;2023-04-10T10:26:11;3.33;;;2.80;;
944;SDS011;459;48.676;9.034;2023-04-10T10:28:37;2.37;;;2.10;;
944;SDS011;459;48.676;9.034;2023-04-10T10:31:04;2.50;;;2.30;;
944;SDS011;459;48.676;9.034;2023-04-10T10:33:29;2.57;;;2.30;;
944;SDS011;459;48.676;9.034;2023-04-10T10:35:59;3.47;;;3.17;;
944;SDS011;459;48.676;9.034;2023-04-10T10:38:25;1.80;;;1.70;;
944;SDS011;459;48.676;9.034;2023-04-10T10:43:42;2.10;;;1.90;;
944;SDS011;459;48.676;9.034;2023-04-10T10:46:11;3.70;;;1.93;;
944;SDS011;459;48.676;9.034;2023-04-10T10:48:38;2.00;;;1.30;;
944;SDS011;459;48.676;9.034;2023-04-10T10:51:04;2.27;;;1.70;;
944;SDS011;459;48.676;9.034;2023-04-10T10:53:37;3.20;;;1.77;;
944;SDS011;459;48.676;9.034;2023-04-10T10:56:31;1.60;;;1.47;;
944;SDS011;459;48.676;9.034;2023-04-10T10:58:52;2.17;;;1.83;;
944;SDS011;459;48.676;9.034;2023-04-10T11:01:18;1.60;;;1.40;;
944;SDS011;459;48.676;9.034;2023-04-10T11:03:44;1.80;;;1.70;;
944;SDS011;459;48.676;9.034;2023-04-10T11:06:11;1.87;;;1.37;;
944;SDS011;459;48.676;9.034;2023-04-10T11:08:43;2.60;;;1.53;;
944;SDS011;459;48.676;9.034;2023-04-10T11:11:18;2.10;;;1.90;;
944;SDS011;459;48.676;9.034;2023-04-10T11:16:22;2.20;;;2.00;;
944;SDS011;459;48.676;9.034;2023-04-10T11:21:13;1.55;;;1.45;;
944;SDS011;459;48.676;9.034;2023-04-10T11:28:57;1.30;;;1.20;;
944;SDS011;459;48.676;9.034;2023-04-10T11:31:22;1.60;;;1.43;;
944;SDS011;459;48.676;9.034;2023-04-10T11:33:48;2.00;;;1.70;;
944;SDS011;459;48.676;9.034;2023-04-10T11:36:14;2.23;;;1.43;;
944;SDS011;459;48.676;9.034;2023-04-10T11:41:32;1.73;;;1.63;;
944;SDS011;459;48.676;9.034;2023-04-10T11:43:57;1.00;;;0.80;;
944;SDS011;459;48.676;9.034;2023-04-10T11:46:23;2.10;;;1.53;;
944;SDS011;459;48.676;9.034;2023-04-10T11:48:52;1.60;;;1.50;;
944;SDS011;459;48.676;9.034;2023-04-10T11:51:17;1.33;;;1.10;;
944;SDS011;459;48.676;9.034;2023-04-10T11:53:42;2.03;;;1.63;;
944;SDS011;459;48.676;9.034;2023-04-10T11:56:14;1.33;;;1.23;;
944;SDS011;459;48.676;9.034;2023-04-10T11:58:40;1.80;;;1.70;;
944;SDS011;459;48.676;9.034;2023-04-10T12:01:05;1.50;;;1.10;;
944;SDS011;459;48.676;9.034;2023-04-10T12:03:34;1.40;;;1.03;;
944;SDS011;459;48.676;9.034;2023-04-10T12:06:00;1.10;;;1.00;;
944;SDS011;459;48.676;9.034;2023-04-10T12:08:32;1.70;;;1.50;;
944;SDS011;459;48.676;9.034;2023-04-10T12:10:58;1.50;;;1.20;;
944;SDS011;459;48.676;9.034;2023-04-10T12:13:24;1.30;;;1.10;;
944;SDS011;459;48.676;9.034;2023-04-10T12:15:50;1.10;;;0.83;;
944;SDS011;459;48.676;9.034;2023-04-10T12:18:15;1.23;;;0.90;;
944;SDS011;459;48.676;9.034;2023-04-10T12:20:41;1.60;;;1.13;;
944;SDS011;459;48.676;9.034;2023-04-10T12:23:06;1.60;;;1.20;;
944;SDS011;459;48.676;9.034;2023-04-10T12:25:31;1.33;;;1.10;;
944;SDS011;459;48.676;9.034;2023-04-10T12:27:57;1.40;;;1.17;;
944;SDS011;459;48.676;9.034;2023-04-10T12:30:22;1.70;;;1.23;;
944;SDS011;459;48.676;9.034;2023-04-10T12:32:50;1.27;;;0.97;;
944;SDS011;459;48.676;9.034;2023-04-10T12:35:18;1.10;;;0.83;;
944;SDS011;459;48.676;9.034;2023-04-10T12:40:12;1.23;;;1.13;;
944;SDS011;459;48.676;9.034;2023-04-10T12:42:40;1.10;;;0.80;;
944;SDS011;459;48.676;9.034;2023-04-10T12:45:08;1.20;;;0.90;;
944;SDS011;459;48.676;9.034;2023-04-10T12:47:44;3.60;;;2.33;;
944;SDS011;459;48.676;9.034;2023-04-10T12:50:14;1.27;;;1.07;;
944;SDS011;459;48.676;9.034;2023-04-10T12:52:41;1.40;;;1.30;;
944;SDS011;459;48.676;9.034;2023-04-10T12:55:09;1.33;;;1.20;;
944;SDS011;459;48.676;9.034;2023-04-10T12:57:35;1.63;;;1.13;;
944;SDS011;459;48.676;9.034;2023-04-10T13:00:01;1.60;;;1.47;;
944;SDS011;459;48.676;9.034;2023-04-10T13:02:27;2.10;;;1.20;;
944;SDS011;459;48.676;9.034;2023-04-10T13:04:53;2.03;;;1.63;;
944;SDS011;459;48.676;9.034;2023-04-10T13:07:18;1.47;;;1.37;;
944;SDS011;459;48.676;9.034;2023-04-10T13:09:43;1.70;;;1.57;;
944;SDS011;459;48.676;9.034;2023-04-10T13:12:08;1.23;;;1.10;;
944;SDS011;459;48.676;9.034;2023-04-10T13:14:33;1.10;;;1.00;;
944;SDS011;459;48.676;9.034;2023-04-10T13:16:59;1.30;;;1.13;;
944;SDS011;459;48.676;9.034;2023-04-10T13:19:24;1.40;;;1.13;;
944;SDS011;459;48.676;9.034;2023-04-10T13:21:49;1.60;;;1.50;;
944;SDS011;459;48.676;9.034;2023-04-10T13:24:15;1.83;;;1.10;;
944;SDS011;459;48.676;9.034;2023-04-10T13:26:41;1.57;;;1.13;;
944;SDS011;459;48.676;9.034;2023-04-10T13:29:06;1.77;;;1.00;;
944;SDS011;459;48.676;9.034;2023-04-10T13:31:31;1.00;;;0.87;;
944;SDS011;459;48.676;9.034;2023-04-10T13:33:56;1.10;;;1.00;;
944;SDS011;459;48.676;9.034;2023-04-10T13:36:21;1.30;;;1.10;;
944;SDS011;459;48.676;9.034;2023-04-10T13:38:47;1.40;;;1.30;;
944;SDS011;459;48.676;9.034;2023-04-10T13:41:12;1.70;;;1.30;;
944;SDS011;459;48.676;9.034;2023-04-10T13:43:37;1.70;;;1.23;;
944;SDS011;459;48.676;9.034;2023-04-10T13:46:02;1.40;;;1.30;;
944;SDS011;459;48.676;9.034;2023-04-10T13:48:27;1.87;;;1.00;;
944;SDS011;459;48.676;9.034;2023-04-10T13:50:53;1.50;;;1.10;;
944;SDS011;459;48.676;9.034;2023-04-10T13:53:18;1.37;;;1.20;;
944;SDS011;459;48.676;9.034;2023-04-10T13:55:43;1.60;;;1.37;;
944;SDS011;459;48.676;9.034;2023-04-10T13:58:11;1.27;;;1.00;;
944;SDS011;459;48.676;9.034;2023-04-10T14:00:41;2.87;;;1.37;;
944;SDS011;459;48.676;9.034;2023-04-10T14:03:06;1.30;;;1.10;;
944;SDS011;459;48.676;9.034;2023-04-10T14:05:34;2.83;;;1.50;;
944;SDS011;459;48.676;9.034;2023-04-10T14:07:59;2.40;;;1.00;;
944;SDS011;459;48.676;9.034;2023-04-10T14:10:24;1.30;;;1.20;;
944;SDS011;459;48.676;9.034;2023-04-10T14:12:49;1.43;;;0.97;;
944;SDS011;459;48.676;9.034;2023-04-10T14:15:15;1.17;;;0.97;;
944;SDS011;459;48.676;9.034;2023-04-10T14:17:40;2.50;;;1.60;;
944;SDS011;459;48.676;9.034;2023-04-10T14:20:05;1.50;;;1.20;;
944;SDS011;459;48.676;9.034;2023-04-10T14:22:31;1.10;;;0.97;;
944;SDS011;459;48.676;9.034;2023-04-10T14:24:56;2.90;;;1.87;;
944;SDS011;459;48.676;9.034;2023-04-10T14:27:21;2.03;;;1.83;;
944;SDS011;459;48.676;9.034;2023-04-10T14:29:46;2.43;;;1.43;;
944;SDS011;459;48.676;9.034;2023-04-10T14:32:11;1.37;;;1.00;;
944;SDS011;459;48.676;9.034;2023-04-10T14:34:36;2.10;;;1.10;;
944;SDS011;459;48.676;9.034;2023-04-10T14:37:02;1.77;;;1.40;;
944;SDS011;459;48.676;9.034;2023-04-10T14:39:27;1.87;;;1.47;;
944;SDS011;459;48.676;9.034;2023-04-10T14:41:52;1.17;;;1.00;;
944;SDS011;459;48.676;9.034;2023-04-10T14:44:17;1.50;;;0.97;;
944;SDS011;459;48.676;9.034;2023-04-10T14:46:43;1.53;;;1.03;;
944;SDS011;459;48.676;9.034;2023-04-10T14:49:08;1.40;;;1.03;;
944;SDS011;459;48.676;9.034;2023-04-10T14:51:33;1.37;;;1.23;;
944;SDS011;459;48.676;9.034;2023-04-10T14:53:59;1.40;;;1.17;;
944;SDS011;459;48.676;9.034;2023-04-10T14:56:24;1.57;;;1.27;;
944;SDS011;459;48.676;9.034;2023-04-10T14:58:49;2.20;;;1.63;;
944;SDS011;459;48.676;9.034;2023-04-10T15:01:14;1.30;;;0.90;;
944;SDS011;459;48.676;9.034;2023-04-10T15:03:40;1.57;;;1.40;;
944;SDS011;459;48.676;9.034;2023-04-10T15:06:05;1.30;;;1.03;;
944;SDS011;459;48.676;9.034;2023-04-10T15:08:30;1.47;;;1.37;;
944;SDS011;459;48.676;9.034;2023-04-10T15:10:56;2.30;;;1.60;;
944;SDS011;459;48.676;9.034;2023-04-10T15:13:21;1.13;;;1.00;;
944;SDS011;459;48.676;9.034;2023-04-10T15:15:46;1.33;;;1.23;;
944;SDS011;459;48.676;9.034;2023-04-10T15:18:13;2.43;;;1.90;;
944;SDS011;459;48.676;9.034;2023-04-10T15:20:38;1.40;;;1.30;;
944;SDS011;459;48.676;9.034;2023-04-10T15:23:03;1.60;;;1.50;;
944;SDS011;459;48.676;9.034;2023-04-10T15:25:28;1.60;;;1.43;;
944;SDS011;459;48.676;9.034;2023-04-10T15:27:54;1.57;;;1.10;;
944;SDS011;459;48.676;9.034;2023-04-10T15:30:20;1.63;;;1.40;;
944;SDS011;459;48.676;9.034;2023-04-10T15:32:45;1.37;;;1.27;;
944;SDS011;459;48.676;9.034;2023-04-10T15:35:10;2.47;;;1.23;;
944;SDS011;459;48.676;9.034;2023-04-10T15:37:35;1.90;;;1.40;;
944;SDS011;459;48.676;9.034;2023-04-10T15:40:01;1.50;;;1.40;;
944;SDS011;459;48.676;9.034;2023-04-10T15:42:28;1.33;;;1.23;;
944;SDS011;459;48.676;9.034;2023-04-10T15:44:53;1.40;;;1.30;;
944;SDS011;459;48.676;9.034;2023-04-10T15:47:18;2.20;;;1.40;;
944;SDS011;459;48.676;9.034;2023-04-10T15:49:43;1.73;;;1.30;;
944;SDS011;459;48.676;9.034;2023-04-10T15:52:09;1.58;;;1.48;;
944;SDS011;459;48.676;9.034;2023-04-10T15:54:34;1.27;;;1.17;;
944;SDS011;459;48.676;9.034;2023-04-10T15:56:59;1.20;;;1.10;;
944;SDS011;459;48.676;9.034;2023-04-10T15:59:25;1.70;;;1.50;;
944;SDS011;459;48.676;9.034;2023-04-10T16:01:50;1.70;;;1.27;;
944;SDS011;459;48.676;9.034;2023-04-10T16:04:16;2.55;;;1.75;;
944;SDS011;459;48.676;9.034;2023-04-10T16:06:41;1.60;;;1.50;;
944;SDS011;459;48.676;9.034;2023-04-10T16:09:06;1.43;;;1.27;;
944;SDS011;459;48.676;9.034;2023-04-10T16:11:32;1.67;;;1.20;;